Destinations Oslo Lufthavn

Oslo Lufthavn (ENGM / OSL)

Flights to Oslo Lufthavn

Flight number From ETE Dispatch
SPY-2304 EGFF Cardiff International Airport 02:25
SPY-310 EHGG Groningen Airport Eelde 01:50
SPY-3119 ENVA Trondheim Airport Værnes 01:05

Flights from Oslo Lufthavn

Flight number To ETE Dispatch
SPY-2305 EGFF Cardiff International Airport 02:25
SPY-311 EHGG Groningen Airport Eelde 01:55
SPY-3120 ENVA Trondheim Airport Værnes 01:10
About

Oslo Lufthavn facts

Oslo Lufthavn is located in Oslo at an elevation of 207.6 meters or 681 feet.

Currently, Speedy Airlines serves 6 flights to and from Oslo Lufthavn.

Detailed airport info

Route map

Weather

Current weather

METAR

METAR

Metar data retrieved Sunday, 21 July 2024 at 19:25 UTC

ENGM 211850Z 16006KT 130V190 CAVOK 23/14 Q1009 NOSIG
Wind Temperature
6 kt 23c